Time;durP1;ratioP1;P1;durP2;ratioP2;P2;SDS_P1;SDS_P2;PMS_P1;PMS_P2;Temp;Humidity;BMP_temperature;BMP_pressure;BME280_temperature;BME280_humidity;BME280_pressure;Samples;Min_cycle;Max_cycle;Signal;HPM_P1;HPM_P2
2022/08/25 00:01:43;;;;;;;0.47;0.32;;;;;;;;;;4144411;28;20061;-47
2022/08/25 00:03:44;;;;;;;0.50;0.20;;;;;;;;;;4144088;28;20060;-46
2022/08/25 00:05:46;;;;;;;1.30;0.20;;;;;;;;;;4144495;28;20450;-45
2022/08/25 00:07:47;;;;;;;0.30;0.13;;;;;;;;;;4144653;28;20568;-45
2022/08/25 00:09:48;;;;;;;0.45;0.10;;;;;;;;;;4144435;28;20362;-45
2022/08/25 00:11:50;;;;;;;0.30;0.20;;;;;;;;;;4144440;28;20054;-46
2022/08/25 00:13:59;;;;;;;0.32;0.20;;;;;;;;;;4143958;28;20477;-46
2022/08/25 00:16:00;;;;;;;0.85;0.20;;;;;;;;;;4143870;28;20061;-46
2022/08/25 00:18:02;;;;;;;0.28;0.20;;;;;;;;;;4145482;28;20465;-46
2022/08/25 00:20:04;;;;;;;0.47;0.08;;;;;;;;;;4146375;28;20108;-46
2022/08/25 00:22:07;;;;;;;0.10;0.10;;;;;;;;;;4145340;28;20057;-46
2022/08/25 00:24:10;;;;;;;0.40;0.20;;;;;;;;;;4144571;28;20497;-45
2022/08/25 00:26:12;;;;;;;0.25;0.15;;;;;;;;;;4146331;28;20054;-46
2022/08/25 00:28:15;;;;;;;0.80;0.20;;;;;;;;;;4145698;28;20112;-45
2022/08/25 00:30:17;;;;;;;0.15;0.15;;;;;;;;;;4146161;28;20515;-45
2022/08/25 00:32:18;;;;;;;0.20;0.20;;;;;;;;;;4146154;28;20402;-46
2022/08/25 00:34:22;;;;;;;0.43;0.13;;;;;;;;;;4146399;28;20050;-46
2022/08/25 00:36:25;;;;;;;0.20;0.20;;;;;;;;;;4145045;28;20058;-46
2022/08/25 00:38:26;;;;;;;0.10;0.10;;;;;;;;;;4147108;28;20072;-46
2022/08/25 00:40:28;;;;;;;0.28;0.17;;;;;;;;;;4149535;28;20100;-48
2022/08/25 00:42:30;;;;;;;0.28;0.20;;;;;;;;;;4148643;28;20565;-46
2022/08/25 00:44:32;;;;;;;0.32;0.15;;;;;;;;;;4149638;28;20104;-45
2022/08/25 00:46:39;;;;;;;0.38;0.35;;;;;;;;;;4149174;28;20057;-46
2022/08/25 00:48:42;;;;;;;0.52;0.20;;;;;;;;;;4149279;28;20053;-46
2022/08/25 00:50:43;;;;;;;0.63;0.17;;;;;;;;;;4147861;28;20050;-46
2022/08/25 00:52:50;;;;;;;0.20;0.10;;;;;;;;;;4138053;28;20061;-47
2022/08/25 00:54:55;;;;;;;1.27;0.30;;;;;;;;;;4131193;28;20494;-46
2022/08/25 00:56:57;;;;;;;0.55;0.35;;;;;;;;;;4130826;28;20498;-49
2022/08/25 00:58:58;;;;;;;0.30;0.20;;;;;;;;;;4128936;28;20061;-46
2022/08/25 01:01:00;;;;;;;0.30;0.28;;;;;;;;;;4141046;28;20100;-45
2022/08/25 01:03:01;;;;;;;0.68;0.30;;;;;;;;;;4147154;28;20089;-45
2022/08/25 01:05:03;;;;;;;1.15;0.25;;;;;;;;;;4146492;28;20406;-46
2022/08/25 01:07:04;;;;;;;2.05;0.20;;;;;;;;;;4147053;28;20053;-45
2022/08/25 01:09:06;;;;;;;0.30;0.22;;;;;;;;;;4146692;28;20126;-46
2022/08/25 01:11:08;;;;;;;0.20;0.17;;;;;;;;;;4145353;28;20169;-45
2022/08/25 01:13:16;;;;;;;0.95;0.20;;;;;;;;;;4146402;28;20062;-46
2022/08/25 01:15:18;;;;;;;1.50;0.20;;;;;;;;;;4145736;28;20076;-45
2022/08/25 01:17:20;;;;;;;0.57;0.20;;;;;;;;;;4146433;28;20343;-45
2022/08/25 01:19:21;;;;;;;0.10;0.10;;;;;;;;;;4146926;28;20115;-45
2022/08/25 01:21:25;;;;;;;0.32;0.20;;;;;;;;;;4146564;28;20061;-46
2022/08/25 01:23:26;;;;;;;0.30;0.20;;;;;;;;;;4146775;28;20335;-46
2022/08/25 01:25:46;;;;;;;0.20;0.20;;;;;;;;;;4146610;28;20145;-45
2022/08/25 01:27:47;;;;;;;0.65;0.10;;;;;;;;;;4145509;28;20084;-45
2022/08/25 01:29:49;;;;;;;0.70;0.28;;;;;;;;;;4146331;28;20076;-45
2022/08/25 01:31:55;;;;;;;0.40;0.30;;;;;;;;;;4146376;28;20054;-45
2022/08/25 01:33:57;;;;;;;0.10;0.10;;;;;;;;;;4146721;28;20108;-46
2022/08/25 01:35:58;;;;;;;0.65;0.25;;;;;;;;;;4145328;28;20088;-46
2022/08/25 01:38:00;;;;;;;0.32;0.20;;;;;;;;;;4146140;28;20411;-45
2022/08/25 01:40:03;;;;;;;0.50;0.30;;;;;;;;;;4144091;28;20951;-45
2022/08/25 01:42:08;;;;;;;0.38;0.10;;;;;;;;;;4148235;28;20054;-46
2022/08/25 01:44:09;;;;;;;0.47;0.20;;;;;;;;;;4147034;28;20092;-45
2022/08/25 01:46:11;;;;;;;0.35;0.20;;;;;;;;;;4148141;28;20053;-44
2022/08/25 01:48:14;;;;;;;0.10;0.10;;;;;;;;;;4147981;28;20060;-45
2022/08/25 01:50:15;;;;;;;0.28;0.28;;;;;;;;;;4148132;28;20053;-45
2022/08/25 01:52:24;;;;;;;0.28;0.10;;;;;;;;;;4148284;28;20491;-46
2022/08/25 01:54:25;;;;;;;0.40;0.20;;;;;;;;;;4148586;28;20053;-45
2022/08/25 01:56:26;;;;;;;0.17;0.15;;;;;;;;;;4148212;28;20449;-46
2022/08/25 01:58:33;;;;;;;0.60;0.20;;;;;;;;;;4147545;28;20406;-46
2022/08/25 02:00:34;;;;;;;1.20;0.20;;;;;;;;;;4147918;28;20391;-45
2022/08/25 02:02:35;;;;;;;0.10;0.10;;;;;;;;;;4147997;28;20485;-45
2022/08/25 02:04:37;;;;;;;0.45;0.17;;;;;;;;;;4148019;28;20115;-45
2022/08/25 02:06:39;;;;;;;0.20;0.20;;;;;;;;;;4147907;28;20332;-45
2022/08/25 02:08:41;;;;;;;0.30;0.17;;;;;;;;;;4147826;28;20064;-45
2022/08/25 02:10:42;;;;;;;0.45;0.15;;;;;;;;;;4146525;28;20132;-46
2022/08/25 02:12:44;;;;;;;0.40;0.10;;;;;;;;;;4147618;28;20049;-45
2022/08/25 02:14:45;;;;;;;0.20;0.17;;;;;;;;;;4147948;28;20049;-45
2022/08/25 02:16:50;;;;;;;0.20;0.20;;;;;;;;;;4147944;28;20544;-45
2022/08/25 02:18:52;;;;;;;0.70;0.20;;;;;;;;;;4147785;28;20393;-45
2022/08/25 02:20:53;;;;;;;0.17;0.10;;;;;;;;;;4147720;28;20061;-45
2022/08/25 02:22:55;;;;;;;1.00;0.40;;;;;;;;;;4147528;28;20452;-48
2022/08/25 02:24:56;;;;;;;0.30;0.20;;;;;;;;;;4146324;28;20058;-45
2022/08/25 02:26:57;;;;;;;0.40;0.15;;;;;;;;;;4147621;28;20402;-45
2022/08/25 02:28:58;;;;;;;0.77;0.35;;;;;;;;;;4147249;28;20050;-46
2022/08/25 02:30:59;;;;;;;0.30;0.20;;;;;;;;;;4147709;28;20076;-46
2022/08/25 02:33:01;;;;;;;0.35;0.10;;;;;;;;;;4147622;28;20100;-45
2022/08/25 02:35:02;;;;;;;0.20;0.20;;;;;;;;;;4147517;28;20446;-46
2022/08/25 02:37:04;;;;;;;0.38;0.28;;;;;;;;;;4147332;28;20058;-45
2022/08/25 02:39:07;;;;;;;0.15;0.15;;;;;;;;;;4146052;28;20050;-47
2022/08/25 02:41:21;;;;;;;0.13;0.10;;;;;;;;;;4147532;28;20050;-46
2022/08/25 02:43:22;;;;;;;0.95;0.20;;;;;;;;;;4147008;28;20405;-46
2022/08/25 02:45:23;;;;;;;0.50;0.30;;;;;;;;;;4146046;28;20054;-46
2022/08/25 02:47:24;;;;;;;0.20;0.20;;;;;;;;;;4147564;28;20065;-46
2022/08/25 02:49:26;;;;;;;0.65;0.25;;;;;;;;;;4146142;28;20123;-46
2022/08/25 02:51:28;;;;;;;0.10;0.10;;;;;;;;;;4147206;28;20386;-45
2022/08/25 02:53:29;;;;;;;0.30;0.20;;;;;;;;;;4147048;28;20054;-46
2022/08/25 02:55:31;;;;;;;0.17;0.17;;;;;;;;;;4139867;28;20061;-46
2022/08/25 02:57:32;;;;;;;0.47;0.10;;;;;;;;;;4130744;28;20065;-46
2022/08/25 02:59:34;;;;;;;0.32;0.10;;;;;;;;;;4130909;28;20061;-46
2022/08/25 03:01:35;;;;;;;0.20;0.20;;;;;;;;;;4130060;28;20054;-46
2022/08/25 03:03:41;;;;;;;0.38;0.20;;;;;;;;;;4130970;28;20058;-45
2022/08/25 03:05:42;;;;;;;0.25;0.20;;;;;;;;;;4131008;28;20644;-46
2022/08/25 03:07:44;;;;;;;0.52;0.20;;;;;;;;;;4130059;28;20054;-46
2022/08/25 03:09:45;;;;;;;0.30;0.10;;;;;;;;;;4129176;28;20058;-45
2022/08/25 03:11:46;;;;;;;0.10;0.10;;;;;;;;;;4131012;28;20061;-46
2022/08/25 03:13:51;;;;;;;0.10;0.10;;;;;;;;;;4130333;28;20058;-45
2022/08/25 03:15:53;;;;;;;0.30;0.30;;;;;;;;;;4130897;28;20502;-46
2022/08/25 03:17:54;;;;;;;0.10;0.10;;;;;;;;;;4130825;28;20494;-46
2022/08/25 03:19:56;;;;;;;0.20;0.20;;;;;;;;;;4130914;28;20061;-46
2022/08/25 03:21:58;;;;;;;0.40;0.20;;;;;;;;;;4130632;28;20106;-46
2022/08/25 03:23:59;;;;;;;0.40;0.10;;;;;;;;;;4130819;28;20054;-46
2022/08/25 03:28:20;;;;;;;0.20;0.20;;;;;;;;;;4132342;28;20050;-46
2022/08/25 03:30:21;;;;;;;0.22;0.20;;;;;;;;;;4146930;28;20065;-46
2022/08/25 03:32:22;;;;;;;0.90;0.20;;;;;;;;;;4146980;28;20046;-46
2022/08/25 03:34:26;;;;;;;0.20;0.20;;;;;;;;;;4146758;28;20454;-45
2022/08/25 03:36:28;;;;;;;0.10;0.10;;;;;;;;;;4145602;28;20068;-45
2022/08/25 03:38:29;;;;;;;0.20;0.20;;;;;;;;;;4146440;28;20053;-45
2022/08/25 03:40:31;;;;;;;0.17;0.10;;;;;;;;;;4146521;28;20066;-45
2022/08/25 03:42:33;;;;;;;0.20;0.10;;;;;;;;;;4145985;28;20054;-46
2022/08/25 03:44:34;;;;;;;0.20;0.20;;;;;;;;;;4145597;28;20061;-48
2022/08/25 03:46:42;;;;;;;0.32;0.30;;;;;;;;;;4146513;28;20100;-46
2022/08/25 03:48:44;;;;;;;0.70;0.20;;;;;;;;;;4146511;28;20089;-45
2022/08/25 03:50:48;;;;;;;0.40;0.20;;;;;;;;;;4145235;28;20108;-45
2022/08/25 03:52:54;;;;;;;0.28;0.20;;;;;;;;;;4144943;28;20173;-45
2022/08/25 03:54:55;;;;;;;0.10;0.10;;;;;;;;;;4145397;28;20057;-45
2022/08/25 03:56:56;;;;;;;0.65;0.20;;;;;;;;;;4146381;28;20062;-45
2022/08/25 03:58:57;;;;;;;0.45;0.30;;;;;;;;;;4145953;28;20555;-45
2022/08/25 04:00:59;;;;;;;0.10;0.10;;;;;;;;;;4135503;28;20367;-45
2022/08/25 04:03:00;;;;;;;0.45;0.20;;;;;;;;;;4130042;28;20096;-46
2022/08/25 04:05:02;;;;;;;0.30;0.20;;;;;;;;;;4130219;28;20055;-45
2022/08/25 04:07:03;;;;;;;0.30;0.20;;;;;;;;;;4130051;28;20054;-46
2022/08/25 04:09:04;;;;;;;0.20;0.20;;;;;;;;;;4130058;28;20055;-45
2022/08/25 04:11:08;;;;;;;0.50;0.15;;;;;;;;;;4129753;28;20100;-46
2022/08/25 04:13:10;;;;;;;0.40;0.30;;;;;;;;;;4129918;28;20059;-45
2022/08/25 04:15:12;;;;;;;0.60;0.20;;;;;;;;;;4133769;28;20054;-45
2022/08/25 04:17:13;;;;;;;0.47;0.30;;;;;;;;;;4132042;28;20058;-46
2022/08/25 04:19:14;;;;;;;0.30;0.20;;;;;;;;;;4133422;28;20454;-45
2022/08/25 04:21:17;;;;;;;0.63;0.20;;;;;;;;;;4133034;28;20413;-45
2022/08/25 04:23:18;;;;;;;0.20;0.20;;;;;;;;;;4133359;28;20113;-45
2022/08/25 04:25:19;;;;;;;0.28;0.20;;;;;;;;;;4133545;28;20054;-48
2022/08/25 04:27:20;;;;;;;0.40;0.20;;;;;;;;;;4132762;28;20061;-46
2022/08/25 04:29:23;;;;;;;0.85;0.30;;;;;;;;;;4133397;28;20108;-46
2022/08/25 04:31:24;;;;;;;0.40;0.20;;;;;;;;;;4133109;28;20050;-46
2022/08/25 04:33:25;;;;;;;0.17;0.10;;;;;;;;;;4133062;28;20383;-44
2022/08/25 04:35:26;;;;;;;0.38;0.20;;;;;;;;;;4131269;28;20108;-45
2022/08/25 04:37:28;;;;;;;0.80;0.40;;;;;;;;;;4131225;28;20054;-47
2022/08/25 04:39:30;;;;;;;1.65;0.28;;;;;;;;;;4146249;28;20433;-45
2022/08/25 04:41:31;;;;;;;1.17;0.43;;;;;;;;;;4131279;28;20080;-52
2022/08/25 04:43:34;;;;;;;0.20;0.20;;;;;;;;;;4130632;28;20457;-48
2022/08/25 04:45:37;;;;;;;0.25;0.20;;;;;;;;;;4146193;28;20117;-46
2022/08/25 04:47:38;;;;;;;0.30;0.30;;;;;;;;;;4130334;28;20428;-49
2022/08/25 04:49:39;;;;;;;0.20;0.20;;;;;;;;;;4136475;28;20112;-46
2022/08/25 04:51:41;;;;;;;0.30;0.20;;;;;;;;;;4147413;28;20445;-46
2022/08/25 04:53:42;;;;;;;0.38;0.13;;;;;;;;;;4147291;28;20120;-47
2022/08/25 04:55:46;;;;;;;0.30;0.20;;;;;;;;;;4147178;28;20054;-46
2022/08/25 04:57:48;;;;;;;0.20;0.20;;;;;;;;;;4146683;28;20062;-46
2022/08/25 04:59:49;;;;;;;0.43;0.20;;;;;;;;;;4146737;28;20115;-46
2022/08/25 05:01:50;;;;;;;0.40;0.20;;;;;;;;;;4145271;28;20362;-47
2022/08/25 05:03:59;;;;;;;0.20;0.20;;;;;;;;;;4146739;28;20057;-47
2022/08/25 05:06:01;;;;;;;0.32;0.28;;;;;;;;;;4145487;28;20405;-47
2022/08/25 05:08:04;;;;;;;0.15;0.15;;;;;;;;;;4146732;28;20081;-47
2022/08/25 05:10:05;;;;;;;0.17;0.17;;;;;;;;;;4146663;28;20587;-45
2022/08/25 05:12:07;;;;;;;1.08;0.40;;;;;;;;;;4145562;28;20050;-47
2022/08/25 05:14:10;;;;;;;0.50;0.22;;;;;;;;;;4146526;28;20104;-47
2022/08/25 05:16:12;;;;;;;0.20;0.20;;;;;;;;;;4146605;28;20112;-46
2022/08/25 05:18:15;;;;;;;0.35;0.30;;;;;;;;;;4145107;28;20144;-47
2022/08/25 05:20:16;;;;;;;0.30;0.30;;;;;;;;;;4146789;28;20072;-47
2022/08/25 05:22:18;;;;;;;0.50;0.30;;;;;;;;;;4146256;28;20412;-47
2022/08/25 05:24:20;;;;;;;0.20;0.13;;;;;;;;;;4146352;28;20062;-49
2022/08/25 05:26:22;;;;;;;0.30;0.20;;;;;;;;;;4146460;28;20426;-46
2022/08/25 05:28:23;;;;;;;0.25;0.20;;;;;;;;;;4146323;28;20069;-46
2022/08/25 05:30:24;;;;;;;0.10;0.10;;;;;;;;;;4146298;28;20108;-46
2022/08/25 05:32:25;;;;;;;0.40;0.20;;;;;;;;;;4146218;28;20104;-48
2022/08/25 05:34:26;;;;;;;0.50;0.30;;;;;;;;;;4144593;28;20069;-47
2022/08/25 05:36:28;;;;;;;0.30;0.20;;;;;;;;;;4145877;28;20121;-47
2022/08/25 05:38:29;;;;;;;0.25;0.25;;;;;;;;;;4144826;28;20402;-47
2022/08/25 05:40:31;;;;;;;0.60;0.30;;;;;;;;;;4145569;28;20127;-46
2022/08/25 05:42:32;;;;;;;0.25;0.20;;;;;;;;;;4138187;28;20057;-46
2022/08/25 05:44:33;;;;;;;0.20;0.20;;;;;;;;;;4145194;28;20203;-46
2022/08/25 05:46:35;;;;;;;0.20;0.20;;;;;;;;;;4146039;28;20053;-45
2022/08/25 05:48:36;;;;;;;0.20;0.20;;;;;;;;;;4145326;28;20057;-46
2022/08/25 05:50:37;;;;;;;0.10;0.10;;;;;;;;;;4143839;28;20054;-45
2022/08/25 05:52:39;;;;;;;0.40;0.30;;;;;;;;;;4143743;28;20410;-47
2022/08/25 05:54:40;;;;;;;0.98;0.20;;;;;;;;;;4142127;28;20093;-46
2022/08/25 05:56:41;;;;;;;0.30;0.25;;;;;;;;;;4144078;28;20064;-46
2022/08/25 05:58:43;;;;;;;0.60;0.28;;;;;;;;;;4144865;28;20092;-46
2022/08/25 06:00:44;;;;;;;0.50;0.20;;;;;;;;;;4140381;28;20068;-47
2022/08/25 06:02:48;;;;;;;0.50;0.20;;;;;;;;;;4141006;28;20108;-45
2022/08/25 06:04:49;;;;;;;0.20;0.10;;;;;;;;;;4143722;28;20386;-47
2022/08/25 06:06:53;;;;;;;0.30;0.20;;;;;;;;;;4131884;28;20107;-47
2022/08/25 06:08:55;;;;;;;0.38;0.20;;;;;;;;;;4138470;28;20062;-45
2022/08/25 06:10:56;;;;;;;0.50;0.20;;;;;;;;;;4137414;28;20054;-45
2022/08/25 06:12:57;;;;;;;0.50;0.20;;;;;;;;;;4141221;28;20089;-46
2022/08/25 06:14:58;;;;;;;0.28;0.20;;;;;;;;;;4142349;28;20050;-46
2022/08/25 06:17:00;;;;;;;0.52;0.20;;;;;;;;;;4139818;28;20124;-47
2022/08/25 06:19:01;;;;;;;0.38;0.20;;;;;;;;;;4142972;28;20069;-46
2022/08/25 06:21:13;;;;;;;0.35;0.30;;;;;;;;;;4136565;28;20053;-46
2022/08/25 06:23:14;;;;;;;0.32;0.20;;;;;;;;;;4138094;28;20370;-43
2022/08/25 06:25:18;;;;;;;0.40;0.28;;;;;;;;;;4139451;28;20713;-45
2022/08/25 06:27:19;;;;;;;0.32;0.20;;;;;;;;;;4137238;28;20107;-44
2022/08/25 06:29:21;;;;;;;0.45;0.30;;;;;;;;;;4139107;28;20217;-45
2022/08/25 06:31:22;;;;;;;0.35;0.20;;;;;;;;;;4136213;28;20050;-44
2022/08/25 06:33:23;;;;;;;0.90;0.40;;;;;;;;;;4130785;28;20064;-44
2022/08/25 06:35:24;;;;;;;0.57;0.30;;;;;;;;;;4139732;28;20470;-44
2022/08/25 06:37:26;;;;;;;0.25;0.20;;;;;;;;;;4135704;28;20449;-48
2022/08/25 06:39:27;;;;;;;0.50;0.15;;;;;;;;;;4139355;28;20061;-44
2022/08/25 06:41:29;;;;;;;1.35;0.20;;;;;;;;;;4142045;28;20085;-45
2022/08/25 06:43:32;;;;;;;0.20;0.17;;;;;;;;;;4138202;28;20065;-45
2022/08/25 06:45:33;;;;;;;0.40;0.17;;;;;;;;;;4139871;28;20101;-46
2022/08/25 06:47:35;;;;;;;0.38;0.28;;;;;;;;;;4136607;28;20497;-46
2022/08/25 06:49:36;;;;;;;1.25;0.10;;;;;;;;;;4136706;28;20062;-47
2022/08/25 06:51:38;;;;;;;0.20;0.20;;;;;;;;;;4136700;28;20062;-46
2022/08/25 06:53:39;;;;;;;0.50;0.20;;;;;;;;;;4128721;28;20049;-46
2022/08/25 06:55:40;;;;;;;0.30;0.25;;;;;;;;;;4128914;28;20069;-46
2022/08/25 06:57:42;;;;;;;0.20;0.20;;;;;;;;;;4124840;28;20058;-47
2022/08/25 06:59:43;;;;;;;1.90;0.20;;;;;;;;;;4124367;28;20112;-46
2022/08/25 07:01:44;;;;;;;0.40;0.20;;;;;;;;;;4134284;28;20430;-46
2022/08/25 07:03:46;;;;;;;0.30;0.30;;;;;;;;;;4132499;28;21551;-46
2022/08/25 07:05:52;;;;;;;0.38;0.20;;;;;;;;;;4132151;28;20117;-45
2022/08/25 07:07:53;;;;;;;0.38;0.22;;;;;;;;;;4134050;28;20068;-48
2022/08/25 07:09:55;;;;;;;1.38;0.30;;;;;;;;;;4123489;28;20072;-46
2022/08/25 07:11:56;;;;;;;0.40;0.22;;;;;;;;;;4134142;28;20428;-46
2022/08/25 07:13:57;;;;;;;0.45;0.20;;;;;;;;;;4128354;28;20123;-45
2022/08/25 07:15:59;;;;;;;0.20;0.20;;;;;;;;;;4134069;28;20096;-43
2022/08/25 07:18:00;;;;;;;0.25;0.20;;;;;;;;;;4130679;28;20062;-44
2022/08/25 07:20:01;;;;;;;0.10;0.10;;;;;;;;;;4137114;28;20456;-43
2022/08/25 07:22:02;;;;;;;0.32;0.10;;;;;;;;;;4138366;28;20046;-46
2022/08/25 07:24:05;;;;;;;4.82;0.20;;;;;;;;;;4127189;28;20069;-44
2022/08/25 07:26:08;;;;;;;0.10;0.10;;;;;;;;;;4136367;28;20613;-44
2022/08/25 07:28:09;;;;;;;0.32;0.20;;;;;;;;;;4124889;28;20688;-44
2022/08/25 07:30:11;;;;;;;1.20;0.20;;;;;;;;;;4124446;28;20057;-44
2022/08/25 07:32:12;;;;;;;0.52;0.20;;;;;;;;;;4131647;28;20540;-44
2022/08/25 07:36:33;;;;;;;0.63;0.20;;;;;;;;;;4129848;28;20080;-43
2022/08/25 07:38:34;;;;;;;0.30;0.20;;;;;;;;;;4130080;28;20054;-43
2022/08/25 07:40:37;;;;;;;0.65;0.10;;;;;;;;;;4133332;28;20069;-43
2022/08/25 07:42:38;;;;;;;0.20;0.08;;;;;;;;;;4121550;28;20049;-44
2022/08/25 07:44:39;;;;;;;0.35;0.22;;;;;;;;;;4125207;28;20057;-43
2022/08/25 07:46:41;;;;;;;0.17;0.15;;;;;;;;;;4131181;28;20073;-43
2022/08/25 07:48:42;;;;;;;0.57;0.38;;;;;;;;;;4128467;28;20144;-45
2022/08/25 07:50:44;;;;;;;0.30;0.20;;;;;;;;;;4129015;28;20062;-43
2022/08/25 07:52:46;;;;;;;0.15;0.15;;;;;;;;;;4127435;28;20599;-43
2022/08/25 07:54:47;;;;;;;1.17;0.20;;;;;;;;;;4131952;28;20061;-43
2022/08/25 07:56:50;;;;;;;0.32;0.30;;;;;;;;;;4131116;28;20058;-43
2022/08/25 07:58:51;;;;;;;0.75;0.20;;;;;;;;;;4121094;28;20517;-44
2022/08/25 08:00:52;;;;;;;0.32;0.20;;;;;;;;;;4125808;28;20116;-44
2022/08/25 08:02:54;;;;;;;0.50;0.30;;;;;;;;;;4128256;28;20050;-43
2022/08/25 08:04:55;;;;;;;0.20;0.10;;;;;;;;;;4138397;28;20062;-42
2022/08/25 08:06:57;;;;;;;0.20;0.10;;;;;;;;;;4124213;28;20050;-41
2022/08/25 08:08:58;;;;;;;0.35;0.20;;;;;;;;;;4125654;28;20062;-41
2022/08/25 08:10:59;;;;;;;0.30;0.20;;;;;;;;;;4128566;28;20116;-42
2022/08/25 08:13:01;;;;;;;0.20;0.20;;;;;;;;;;4129716;28;20054;-41
2022/08/25 08:15:03;;;;;;;0.25;0.10;;;;;;;;;;4123000;28;20446;-42
2022/08/25 08:17:08;;;;;;;0.10;0.10;;;;;;;;;;4123762;28;20069;-41
2022/08/25 08:19:10;;;;;;;0.45;0.20;;;;;;;;;;4129705;28;22160;-42
2022/08/25 08:21:18;;;;;;;0.40;0.20;;;;;;;;;;4130346;28;20841;-43
2022/08/25 08:23:19;;;;;;;0.25;0.20;;;;;;;;;;4126903;28;20049;-44
2022/08/25 08:25:20;;;;;;;0.45;0.20;;;;;;;;;;4122908;28;20105;-44
2022/08/25 08:27:22;;;;;;;0.60;0.28;;;;;;;;;;4129109;28;20164;-43
2022/08/25 08:29:23;;;;;;;0.40;0.20;;;;;;;;;;4130869;28;20058;-42
2022/08/25 08:31:27;;;;;;;0.20;0.20;;;;;;;;;;4130795;28;20100;-42
2022/08/25 08:33:28;;;;;;;0.20;0.20;;;;;;;;;;4122037;28;20062;-44
2022/08/25 08:35:30;;;;;;;0.10;0.10;;;;;;;;;;4124347;28;20062;-41
2022/08/25 08:37:31;;;;;;;1.90;0.10;;;;;;;;;;4129503;28;20058;-42
2022/08/25 08:39:32;;;;;;;1.30;0.30;;;;;;;;;;4128740;28;20061;-42
2022/08/25 08:44:10;;;;;;;0.25;0.22;;;;;;;;;;4133375;28;20112;-43
2022/08/25 08:46:11;;;;;;;0.73;0.20;;;;;;;;;;4131938;28;20059;-43
2022/08/25 08:48:24;;;;;;;0.47;0.20;;;;;;;;;;4119627;28;20512;-40
2022/08/25 08:50:32;;;;;;;0.20;0.20;;;;;;;;;;4126060;28;20065;-44
2022/08/25 08:52:43;;;;;;;0.25;0.10;;;;;;;;;;4127946;28;20058;-42
2022/08/25 08:54:45;;;;;;;0.35;0.20;;;;;;;;;;4128513;28;20065;-45
2022/08/25 08:56:49;;;;;;;0.43;0.10;;;;;;;;;;4124560;28;20417;-42
2022/08/25 08:58:57;;;;;;;0.77;0.20;;;;;;;;;;4112855;28;20341;-44
2022/08/25 09:01:00;;;;;;;0.45;0.10;;;;;;;;;;4126968;28;20062;-43
2022/08/25 09:03:06;;;;;;;2.38;0.20;;;;;;;;;;4124200;28;20046;-42
2022/08/25 09:05:13;;;;;;;1.80;0.20;;;;;;;;;;4120215;28;20060;-49
2022/08/25 09:07:29;;;;;;;0.43;0.28;;;;;;;;;;4132028;28;20080;-43
2022/08/25 09:09:32;;;;;;;0.90;0.35;;;;;;;;;;4123844;28;20085;-42
2022/08/25 09:12:26;;;;;;;0.10;0.10;;;;;;;;;;4127165;28;20072;-42
2022/08/25 09:14:38;;;;;;;0.40;0.28;;;;;;;;;;4136461;28;20054;-43
2022/08/25 09:17:05;;;;;;;0.10;0.10;;;;;;;;;;4147526;28;20131;-40
2022/08/25 09:19:30;;;;;;;0.30;0.10;;;;;;;;;;4145178;28;20183;-40
2022/08/25 09:21:50;;;;;;;0.30;0.20;;;;;;;;;;4146557;28;20061;-40
2022/08/25 09:24:03;;;;;;;1.15;0.30;;;;;;;;;;4130782;28;20128;-40
2022/08/25 09:26:13;;;;;;;0.20;0.13;;;;;;;;;;4130959;28;20143;-40
2022/08/25 09:28:36;;;;;;;1.05;0.10;;;;;;;;;;4130202;28;20058;-43
2022/08/25 09:30:46;;;;;;;1.55;0.10;;;;;;;;;;4113631;28;20608;-41
2022/08/25 09:33:01;;;;;;;0.43;0.30;;;;;;;;;;4133458;28;20155;-41
2022/08/25 09:35:02;;;;;;;1.65;0.10;;;;;;;;;;4129016;28;20490;-41
2022/08/25 09:37:04;;;;;;;0.22;0.20;;;;;;;;;;4126009;28;20062;-41
2022/08/25 09:39:06;;;;;;;0.20;0.20;;;;;;;;;;4129497;28;20480;-41
2022/08/25 09:41:07;;;;;;;0.20;0.10;;;;;;;;;;4127968;28;21121;-41
2022/08/25 09:43:23;;;;;;;0.25;0.20;;;;;;;;;;4136538;28;20045;-40
2022/08/25 09:45:37;;;;;;;0.65;0.30;;;;;;;;;;4125264;28;20057;-42
2022/08/25 09:47:43;;;;;;;0.10;0.10;;;;;;;;;;4111352;28;20482;-41
2022/08/25 09:49:58;;;;;;;0.40;0.20;;;;;;;;;;4133241;28;20057;-41
2022/08/25 09:52:22;;;;;;;1.42;0.15;;;;;;;;;;4130993;28;20053;-41
2022/08/25 09:54:25;;;;;;;0.15;0.15;;;;;;;;;;4127429;28;20065;-40
2022/08/25 09:56:33;;;;;;;0.20;0.20;;;;;;;;;;4130463;28;20521;-40
2022/08/25 09:58:34;;;;;;;0.20;0.10;;;;;;;;;;4132057;28;20178;-42
2022/08/25 10:00:35;;;;;;;0.20;0.20;;;;;;;;;;4133011;28;20058;-41
2022/08/25 10:02:37;;;;;;;0.30;0.20;;;;;;;;;;4147208;28;20527;-41
2022/08/25 10:04:38;;;;;;;0.38;0.10;;;;;;;;;;4131718;28;20062;-42
2022/08/25 10:06:44;;;;;;;0.10;0.10;;;;;;;;;;4132133;28;20066;-41
2022/08/25 10:08:45;;;;;;;1.40;0.10;;;;;;;;;;4133125;28;20057;-43
2022/08/25 10:10:54;;;;;;;1.60;0.13;;;;;;;;;;4135580;28;20119;-41
2022/08/25 10:12:58;;;;;;;0.38;0.17;;;;;;;;;;4132173;28;20054;-41
2022/08/25 10:14:59;;;;;;;0.22;0.22;;;;;;;;;;4133006;28;20498;-41
2022/08/25 10:17:14;;;;;;;0.70;0.17;;;;;;;;;;4133403;28;20104;-41
2022/08/25 10:19:27;;;;;;;0.22;0.10;;;;;;;;;;4135846;28;20614;-41
2022/08/25 10:21:28;;;;;;;0.20;0.20;;;;;;;;;;4126257;28;20057;-42
2022/08/25 10:23:31;;;;;;;0.13;0.10;;;;;;;;;;4130861;28;20045;-41
2022/08/25 10:25:33;;;;;;;0.65;0.22;;;;;;;;;;4136091;28;20054;-41
2022/08/25 10:27:59;;;;;;;0.30;0.10;;;;;;;;;;4132482;28;20088;-39
2022/08/25 10:30:11;;;;;;;0.55;0.40;;;;;;;;;;4119991;28;20064;-41
2022/08/25 10:32:26;;;;;;;0.63;0.15;;;;;;;;;;4132861;28;20931;-39
2022/08/25 10:34:43;;;;;;;0.45;0.20;;;;;;;;;;4130212;28;20057;-39
2022/08/25 10:37:07;;;;;;;0.50;0.20;;;;;;;;;;4110957;28;20066;-40
2022/08/25 10:39:17;;;;;;;0.68;0.28;;;;;;;;;;4128591;28;20517;-40
2022/08/25 10:41:29;;;;;;;0.28;0.20;;;;;;;;;;4134150;28;20061;-39
2022/08/25 10:43:42;;;;;;;2.83;0.30;;;;;;;;;;4133877;28;20386;-40
2022/08/25 10:46:29;;;;;;;0.63;0.40;;;;;;;;;;4133028;28;20057;-39
2022/08/25 10:48:57;;;;;;;0.43;0.20;;;;;;;;;;4133812;28;20563;-40
2022/08/25 10:51:07;;;;;;;0.30;0.20;;;;;;;;;;4130499;28;20066;-41
2022/08/25 10:53:20;;;;;;;0.00;0.00;;;;;;;;;;4136646;28;20046;-40
2022/08/25 10:55:43;;;;;;;1.23;0.30;;;;;;;;;;4134579;28;20138;-40
2022/08/25 10:57:44;;;;;;;0.28;0.20;;;;;;;;;;4132412;28;20231;-40
2022/08/25 11:00:05;;;;;;;0.35;0.20;;;;;;;;;;4131824;28;20053;-39
2022/08/25 11:02:18;;;;;;;0.73;0.10;;;;;;;;;;4127700;28;20286;-40
2022/08/25 11:04:43;;;;;;;1.02;0.30;;;;;;;;;;4119413;28;20050;-40
2022/08/25 11:06:55;;;;;;;0.25;0.10;;;;;;;;;;4130557;28;20108;-39
2022/08/25 11:09:05;;;;;;;0.10;0.10;;;;;;;;;;4130154;28;21675;-40
2022/08/25 11:11:35;;;;;;;0.52;0.15;;;;;;;;;;4148443;28;20124;-40
2022/08/25 11:14:02;;;;;;;1.80;0.30;;;;;;;;;;4121474;28;20564;-39
2022/08/25 11:16:37;;;;;;;0.40;0.10;;;;;;;;;;4116946;28;20457;-40
2022/08/25 11:19:05;;;;;;;0.20;0.13;;;;;;;;;;4134809;28;20065;-40
2022/08/25 11:21:11;;;;;;;0.45;0.20;;;;;;;;;;4131780;28;20100;-44
2022/08/25 11:23:22;;;;;;;2.67;0.20;;;;;;;;;;4133089;28;20050;-40
2022/08/25 11:25:34;;;;;;;2.42;0.30;;;;;;;;;;4130912;28;20054;-40
2022/08/25 11:27:56;;;;;;;0.80;0.28;;;;;;;;;;4133835;28;20060;-40
2022/08/25 11:30:07;;;;;;;0.90;0.30;;;;;;;;;;4133628;28;20061;-40
2022/08/25 11:32:09;;;;;;;0.32;0.10;;;;;;;;;;4134886;28;20070;-40
2022/08/25 11:34:14;;;;;;;0.40;0.20;;;;;;;;;;4136366;28;20058;-40
2022/08/25 11:36:29;;;;;;;0.20;0.10;;;;;;;;;;4133477;28;20064;-39
2022/08/25 11:39:07;;;;;;;0.88;0.17;;;;;;;;;;4136485;28;20123;-39
2022/08/25 11:41:22;;;;;;;1.40;0.20;;;;;;;;;;4134017;28;20556;-40
2022/08/25 11:43:29;;;;;;;0.20;0.20;;;;;;;;;;4134376;28;20100;-39
2022/08/25 11:45:45;;;;;;;0.25;0.20;;;;;;;;;;4134529;28;20374;-40
2022/08/25 11:47:49;;;;;;;0.20;0.17;;;;;;;;;;4130793;28;20099;-40
2022/08/25 11:50:31;;;;;;;0.50;0.20;;;;;;;;;;4121615;28;20135;-39
2022/08/25 11:52:32;;;;;;;1.73;0.13;;;;;;;;;;4131415;28;20547;-39
2022/08/25 11:54:33;;;;;;;0.30;0.13;;;;;;;;;;4134505;28;20135;-39
2022/08/25 11:56:36;;;;;;;2.30;0.57;;;;;;;;;;4137870;28;20472;-39
2022/08/25 11:58:49;;;;;;;0.35;0.20;;;;;;;;;;4135723;28;20482;-40
2022/08/25 12:00:51;;;;;;;2.15;0.30;;;;;;;;;;4112273;28;20172;-39
2022/08/25 12:02:52;;;;;;;0.13;0.10;;;;;;;;;;4135789;28;20045;-40
2022/08/25 12:04:54;;;;;;;0.35;0.25;;;;;;;;;;4129276;28;20080;-40
2022/08/25 12:07:09;;;;;;;0.10;0.10;;;;;;;;;;4129294;28;20152;-39
2022/08/25 12:09:12;;;;;;;0.50;0.17;;;;;;;;;;4133828;28;20066;-43
2022/08/25 12:11:41;;;;;;;0.45;0.20;;;;;;;;;;4132277;28;20749;-39
2022/08/25 12:13:43;;;;;;;;;;;;;;;;;;4137153;28;20520;-40
2022/08/25 12:15:44;;;;;;;0.10;0.10;;;;;;;;;;4131918;28;19933;-39
2022/08/25 12:18:07;;;;;;;0.43;0.22;;;;;;;;;;4135439;28;20457;-39
2022/08/25 12:20:08;;;;;;;0.05;0.05;;;;;;;;;;4135563;28;20498;-40
2022/08/25 12:22:09;;;;;;;0.50;0.25;;;;;;;;;;4133538;28;20216;-40
2022/08/25 12:24:12;;;;;;;0.40;0.20;;;;;;;;;;4135878;28;20112;-39
2022/08/25 12:26:46;;;;;;;0.20;0.20;;;;;;;;;;4138071;28;20057;-39
2022/08/25 12:29:06;;;;;;;0.60;0.30;;;;;;;;;;4134965;28;20564;-40
2022/08/25 12:31:16;;;;;;;0.50;0.20;;;;;;;;;;4132527;28;20143;-39
2022/08/25 12:33:17;;;;;;;;;;;;;;;;;;4136487;28;20058;-40
2022/08/25 12:35:21;;;;;;;1.48;0.30;;;;;;;;;;4136222;28;19975;-40
2022/08/25 12:37:24;;;;;;;2.42;0.40;;;;;;;;;;4134920;28;20490;-41